sensor_id;sensor_type;location;lat;lon;timestamp;P1;durP1;ratioP1;P2;durP2;ratioP2
69795;SDS011;57073;45.650;9.612;2022-08-30T00:00:56;7.47;;;5.90;;
69795;SDS011;57073;45.650;9.612;2022-08-30T00:03:03;8.98;;;6.43;;
69795;SDS011;57073;45.650;9.612;2022-08-30T00:05:03;7.83;;;6.17;;
69795;SDS011;57073;45.650;9.612;2022-08-30T00:07:04;7.38;;;5.90;;
69795;SDS011;57073;45.650;9.612;2022-08-30T00:09:04;8.83;;;6.40;;
69795;SDS011;57073;45.650;9.612;2022-08-30T00:11:04;7.47;;;6.27;;
69795;SDS011;57073;45.650;9.612;2022-08-30T00:13:06;7.68;;;6.03;;
69795;SDS011;57073;45.650;9.612;2022-08-30T00:15:06;6.37;;;5.70;;
69795;SDS011;57073;45.650;9.612;2022-08-30T00:17:08;8.07;;;6.22;;
69795;SDS011;57073;45.650;9.612;2022-08-30T00:19:08;7.00;;;6.10;;
69795;SDS011;57073;45.650;9.612;2022-08-30T00:21:09;9.85;;;5.80;;
69795;SDS011;57073;45.650;9.612;2022-08-30T00:23:09;8.37;;;5.67;;
69795;SDS011;57073;45.650;9.612;2022-08-30T00:25:10;8.73;;;6.13;;
69795;SDS011;57073;45.650;9.612;2022-08-30T00:27:11;8.23;;;5.78;;
69795;SDS011;57073;45.650;9.612;2022-08-30T00:29:11;9.67;;;6.40;;
69795;SDS011;57073;45.650;9.612;2022-08-30T00:31:11;8.07;;;6.10;;
69795;SDS011;57073;45.650;9.612;2022-08-30T00:33:19;9.80;;;5.80;;
69795;SDS011;57073;45.650;9.612;2022-08-30T00:35:20;9.73;;;6.40;;
69795;SDS011;57073;45.650;9.612;2022-08-30T00:37:20;6.33;;;5.57;;
69795;SDS011;57073;45.650;9.612;2022-08-30T00:39:20;8.57;;;6.10;;
69795;SDS011;57073;45.650;9.612;2022-08-30T00:41:21;8.67;;;6.33;;
69795;SDS011;57073;45.650;9.612;2022-08-30T00:43:23;7.30;;;6.00;;
69795;SDS011;57073;45.650;9.612;2022-08-30T00:45:25;7.00;;;6.07;;
69795;SDS011;57073;45.650;9.612;2022-08-30T00:47:26;7.70;;;6.10;;
69795;SDS011;57073;45.650;9.612;2022-08-30T00:49:26;7.60;;;6.17;;
69795;SDS011;57073;45.650;9.612;2022-08-30T00:51:27;7.13;;;6.07;;
69795;SDS011;57073;45.650;9.612;2022-08-30T00:53:29;8.23;;;6.40;;
69795;SDS011;57073;45.650;9.612;2022-08-30T00:55:32;8.38;;;6.30;;
69795;SDS011;57073;45.650;9.612;2022-08-30T00:57:32;7.47;;;6.03;;
69795;SDS011;57073;45.650;9.612;2022-08-30T00:59:34;6.72;;;6.03;;
69795;SDS011;57073;45.650;9.612;2022-08-30T01:01:35;6.40;;;5.80;;
69795;SDS011;57073;45.650;9.612;2022-08-30T01:03:36;7.32;;;5.75;;
69795;SDS011;57073;45.650;9.612;2022-08-30T01:05:38;9.15;;;6.13;;
69795;SDS011;57073;45.650;9.612;2022-08-30T01:07:38;7.60;;;5.88;;
69795;SDS011;57073;45.650;9.612;2022-08-30T01:09:39;8.07;;;6.03;;
69795;SDS011;57073;45.650;9.612;2022-08-30T01:11:40;9.23;;;5.90;;
69795;SDS011;57073;45.650;9.612;2022-08-30T01:13:40;7.47;;;5.70;;
69795;SDS011;57073;45.650;9.612;2022-08-30T01:15:41;7.50;;;5.47;;
69795;SDS011;57073;45.650;9.612;2022-08-30T01:17:43;7.43;;;5.70;;
69795;SDS011;57073;45.650;9.612;2022-08-30T01:19:46;8.32;;;5.78;;
69795;SDS011;57073;45.650;9.612;2022-08-30T01:21:48;6.88;;;5.95;;
69795;SDS011;57073;45.650;9.612;2022-08-30T01:23:50;9.67;;;5.90;;
69795;SDS011;57073;45.650;9.612;2022-08-30T01:25:52;7.05;;;5.40;;
69795;SDS011;57073;45.650;9.612;2022-08-30T01:28:00;7.40;;;5.90;;
69795;SDS011;57073;45.650;9.612;2022-08-30T01:30:03;9.68;;;6.10;;
69795;SDS011;57073;45.650;9.612;2022-08-30T01:32:04;7.35;;;6.07;;
69795;SDS011;57073;45.650;9.612;2022-08-30T01:34:06;6.33;;;5.60;;
69795;SDS011;57073;45.650;9.612;2022-08-30T01:36:07;9.05;;;6.00;;
69795;SDS011;57073;45.650;9.612;2022-08-30T01:38:10;7.00;;;6.05;;
69795;SDS011;57073;45.650;9.612;2022-08-30T01:40:15;6.40;;;5.80;;
69795;SDS011;57073;45.650;9.612;2022-08-30T01:42:16;9.35;;;6.40;;
69795;SDS011;57073;45.650;9.612;2022-08-30T01:44:18;9.13;;;6.23;;
69795;SDS011;57073;45.650;9.612;2022-08-30T01:46:19;7.77;;;6.77;;
69795;SDS011;57073;45.650;9.612;2022-08-30T01:48:22;10.25;;;6.43;;
69795;SDS011;57073;45.650;9.612;2022-08-30T01:50:22;12.10;;;6.87;;
69795;SDS011;57073;45.650;9.612;2022-08-30T01:52:25;7.70;;;6.80;;
69795;SDS011;57073;45.650;9.612;2022-08-30T01:54:25;8.50;;;6.50;;
69795;SDS011;57073;45.650;9.612;2022-08-30T01:56:26;10.43;;;6.87;;
69795;SDS011;57073;45.650;9.612;2022-08-30T01:58:27;8.67;;;7.10;;
69795;SDS011;57073;45.650;9.612;2022-08-30T02:00:27;7.20;;;6.37;;
69795;SDS011;57073;45.650;9.612;2022-08-30T02:02:27;6.97;;;6.28;;
69795;SDS011;57073;45.650;9.612;2022-08-30T02:04:28;7.10;;;6.33;;
69795;SDS011;57073;45.650;9.612;2022-08-30T02:06:28;12.37;;;6.90;;
69795;SDS011;57073;45.650;9.612;2022-08-30T02:08:28;9.20;;;6.20;;
69795;SDS011;57073;45.650;9.612;2022-08-30T02:10:29;8.87;;;6.40;;
69795;SDS011;57073;45.650;9.612;2022-08-30T02:12:29;6.80;;;5.93;;
69795;SDS011;57073;45.650;9.612;2022-08-30T02:14:29;8.43;;;6.43;;
69795;SDS011;57073;45.650;9.612;2022-08-30T02:16:30;9.60;;;6.67;;
69795;SDS011;57073;45.650;9.612;2022-08-30T02:18:31;10.27;;;6.40;;
69795;SDS011;57073;45.650;9.612;2022-08-30T02:20:32;8.95;;;6.43;;
69795;SDS011;57073;45.650;9.612;2022-08-30T02:22:32;6.27;;;5.60;;
69795;SDS011;57073;45.650;9.612;2022-08-30T02:24:32;7.70;;;6.10;;
69795;SDS011;57073;45.650;9.612;2022-08-30T02:26:32;8.97;;;6.20;;
69795;SDS011;57073;45.650;9.612;2022-08-30T02:28:35;7.75;;;6.38;;
69795;SDS011;57073;45.650;9.612;2022-08-30T02:30:35;9.13;;;5.97;;
69795;SDS011;57073;45.650;9.612;2022-08-30T02:32:35;7.90;;;6.20;;
69795;SDS011;57073;45.650;9.612;2022-08-30T02:34:36;9.63;;;5.80;;
69795;SDS011;57073;45.650;9.612;2022-08-30T02:36:36;9.27;;;6.37;;
69795;SDS011;57073;45.650;9.612;2022-08-30T02:38:38;10.07;;;6.30;;
69795;SDS011;57073;45.650;9.612;2022-08-30T02:40:38;7.65;;;6.20;;
69795;SDS011;57073;45.650;9.612;2022-08-30T02:42:39;8.63;;;6.37;;
69795;SDS011;57073;45.650;9.612;2022-08-30T02:44:40;8.93;;;6.60;;
69795;SDS011;57073;45.650;9.612;2022-08-30T02:46:40;8.20;;;5.80;;
69795;SDS011;57073;45.650;9.612;2022-08-30T02:48:41;7.27;;;6.30;;
69795;SDS011;57073;45.650;9.612;2022-08-30T02:50:42;6.87;;;6.00;;
69795;SDS011;57073;45.650;9.612;2022-08-30T02:52:43;7.05;;;6.05;;
69795;SDS011;57073;45.650;9.612;2022-08-30T02:54:43;6.93;;;5.60;;
69795;SDS011;57073;45.650;9.612;2022-08-30T02:56:43;7.50;;;6.17;;
69795;SDS011;57073;45.650;9.612;2022-08-30T02:58:44;6.73;;;5.83;;
69795;SDS011;57073;45.650;9.612;2022-08-30T03:00:45;10.73;;;6.45;;
69795;SDS011;57073;45.650;9.612;2022-08-30T03:02:45;8.90;;;6.10;;
69795;SDS011;57073;45.650;9.612;2022-08-30T03:04:45;6.77;;;5.97;;
69795;SDS011;57073;45.650;9.612;2022-08-30T03:06:45;6.60;;;6.00;;
69795;SDS011;57073;45.650;9.612;2022-08-30T03:08:46;7.80;;;6.30;;
69795;SDS011;57073;45.650;9.612;2022-08-30T03:10:46;9.87;;;6.33;;
69795;SDS011;57073;45.650;9.612;2022-08-30T03:12:46;7.60;;;6.30;;
69795;SDS011;57073;45.650;9.612;2022-08-30T03:14:47;10.02;;;6.50;;
69795;SDS011;57073;45.650;9.612;2022-08-30T03:16:47;7.00;;;5.93;;
69795;SDS011;57073;45.650;9.612;2022-08-30T03:18:47;8.83;;;6.33;;
69795;SDS011;57073;45.650;9.612;2022-08-30T03:20:48;7.63;;;6.43;;
69795;SDS011;57073;45.650;9.612;2022-08-30T03:22:48;7.88;;;6.10;;
69795;SDS011;57073;45.650;9.612;2022-08-30T03:24:49;7.70;;;6.60;;
69795;SDS011;57073;45.650;9.612;2022-08-30T03:26:49;8.00;;;6.20;;
69795;SDS011;57073;45.650;9.612;2022-08-30T03:28:49;7.13;;;6.07;;
69795;SDS011;57073;45.650;9.612;2022-08-30T03:30:49;7.37;;;6.30;;
69795;SDS011;57073;45.650;9.612;2022-08-30T03:32:50;7.87;;;6.30;;
69795;SDS011;57073;45.650;9.612;2022-08-30T03:34:50;8.87;;;6.10;;
69795;SDS011;57073;45.650;9.612;2022-08-30T03:36:51;7.87;;;6.27;;
69795;SDS011;57073;45.650;9.612;2022-08-30T03:38:51;7.65;;;6.68;;
69795;SDS011;57073;45.650;9.612;2022-08-30T03:40:52;8.10;;;7.10;;
69795;SDS011;57073;45.650;9.612;2022-08-30T03:42:52;7.20;;;6.30;;
69795;SDS011;57073;45.650;9.612;2022-08-30T03:44:52;7.23;;;6.53;;
69795;SDS011;57073;45.650;9.612;2022-08-30T03:46:53;7.90;;;6.55;;
69795;SDS011;57073;45.650;9.612;2022-08-30T03:48:53;8.60;;;6.33;;
69795;SDS011;57073;45.650;9.612;2022-08-30T03:50:56;8.23;;;6.95;;
69795;SDS011;57073;45.650;9.612;2022-08-30T03:52:57;8.33;;;6.90;;
69795;SDS011;57073;45.650;9.612;2022-08-30T03:55:00;8.40;;;6.70;;
69795;SDS011;57073;45.650;9.612;2022-08-30T03:57:01;11.10;;;6.80;;
69795;SDS011;57073;45.650;9.612;2022-08-30T03:59:01;9.67;;;6.23;;
69795;SDS011;57073;45.650;9.612;2022-08-30T04:01:01;9.97;;;6.60;;
69795;SDS011;57073;45.650;9.612;2022-08-30T04:03:02;9.07;;;6.73;;
69795;SDS011;57073;45.650;9.612;2022-08-30T04:05:02;8.60;;;6.70;;
69795;SDS011;57073;45.650;9.612;2022-08-30T04:07:03;9.45;;;6.60;;
69795;SDS011;57073;45.650;9.612;2022-08-30T04:09:04;10.97;;;6.90;;
69795;SDS011;57073;45.650;9.612;2022-08-30T04:11:05;7.55;;;6.50;;
69795;SDS011;57073;45.650;9.612;2022-08-30T04:13:06;8.23;;;6.30;;
69795;SDS011;57073;45.650;9.612;2022-08-30T04:15:06;12.20;;;7.07;;
69795;SDS011;57073;45.650;9.612;2022-08-30T04:17:09;7.53;;;6.70;;
69795;SDS011;57073;45.650;9.612;2022-08-30T04:19:09;8.60;;;6.43;;
69795;SDS011;57073;45.650;9.612;2022-08-30T04:21:09;11.07;;;6.78;;
69795;SDS011;57073;45.650;9.612;2022-08-30T04:23:10;9.23;;;6.83;;
69795;SDS011;57073;45.650;9.612;2022-08-30T04:25:11;9.32;;;7.00;;
69795;SDS011;57073;45.650;9.612;2022-08-30T04:27:12;10.17;;;7.27;;
69795;SDS011;57073;45.650;9.612;2022-08-30T04:29:12;9.15;;;6.82;;
69795;SDS011;57073;45.650;9.612;2022-08-30T04:31:15;11.63;;;7.20;;
69795;SDS011;57073;45.650;9.612;2022-08-30T04:33:16;11.70;;;7.37;;
69795;SDS011;57073;45.650;9.612;2022-08-30T04:35:16;9.33;;;7.23;;
69795;SDS011;57073;45.650;9.612;2022-08-30T04:37:16;11.73;;;7.37;;
69795;SDS011;57073;45.650;9.612;2022-08-30T04:39:17;8.70;;;6.90;;
69795;SDS011;57073;45.650;9.612;2022-08-30T04:41:17;9.85;;;6.75;;
69795;SDS011;57073;45.650;9.612;2022-08-30T04:43:18;10.57;;;6.80;;
69795;SDS011;57073;45.650;9.612;2022-08-30T04:45:19;9.13;;;6.53;;
69795;SDS011;57073;45.650;9.612;2022-08-30T04:47:19;8.27;;;6.55;;
69795;SDS011;57073;45.650;9.612;2022-08-30T04:49:20;7.77;;;6.27;;
69795;SDS011;57073;45.650;9.612;2022-08-30T04:51:20;8.55;;;7.18;;
69795;SDS011;57073;45.650;9.612;2022-08-30T04:53:20;9.63;;;7.07;;
69795;SDS011;57073;45.650;9.612;2022-08-30T04:55:21;8.63;;;6.63;;
69795;SDS011;57073;45.650;9.612;2022-08-30T04:57:21;9.73;;;6.40;;
69795;SDS011;57073;45.650;9.612;2022-08-30T04:59:22;10.68;;;6.80;;
69795;SDS011;57073;45.650;9.612;2022-08-30T05:01:24;9.37;;;7.10;;
69795;SDS011;57073;45.650;9.612;2022-08-30T05:03:24;9.73;;;7.50;;
69795;SDS011;57073;45.650;9.612;2022-08-30T05:05:24;7.23;;;6.53;;
69795;SDS011;57073;45.650;9.612;2022-08-30T05:07:40;7.43;;;6.55;;
69795;SDS011;57073;45.650;9.612;2022-08-30T05:09:40;8.50;;;7.13;;
69795;SDS011;57073;45.650;9.612;2022-08-30T05:11:41;8.17;;;6.60;;
69795;SDS011;57073;45.650;9.612;2022-08-30T05:13:42;8.20;;;7.10;;
69795;SDS011;57073;45.650;9.612;2022-08-30T05:15:43;8.57;;;6.90;;
69795;SDS011;57073;45.650;9.612;2022-08-30T05:17:43;10.93;;;7.00;;
69795;SDS011;57073;45.650;9.612;2022-08-30T05:19:43;7.83;;;7.03;;
69795;SDS011;57073;45.650;9.612;2022-08-30T05:21:44;10.07;;;6.80;;
69795;SDS011;57073;45.650;9.612;2022-08-30T05:23:45;11.17;;;6.90;;
69795;SDS011;57073;45.650;9.612;2022-08-30T05:25:45;9.03;;;6.83;;
69795;SDS011;57073;45.650;9.612;2022-08-30T05:27:46;7.77;;;6.97;;
69795;SDS011;57073;45.650;9.612;2022-08-30T05:29:46;9.87;;;7.33;;
69795;SDS011;57073;45.650;9.612;2022-08-30T05:31:46;10.80;;;7.47;;
69795;SDS011;57073;45.650;9.612;2022-08-30T05:33:47;8.30;;;7.40;;
69795;SDS011;57073;45.650;9.612;2022-08-30T05:35:47;10.57;;;7.13;;
69795;SDS011;57073;45.650;9.612;2022-08-30T05:37:47;8.57;;;7.67;;
69795;SDS011;57073;45.650;9.612;2022-08-30T05:39:48;9.63;;;7.20;;
69795;SDS011;57073;45.650;9.612;2022-08-30T05:41:48;12.00;;;6.90;;
69795;SDS011;57073;45.650;9.612;2022-08-30T05:43:51;9.63;;;6.80;;
69795;SDS011;57073;45.650;9.612;2022-08-30T05:46:01;10.93;;;7.13;;
69795;SDS011;57073;45.650;9.612;2022-08-30T05:48:02;8.52;;;7.13;;
69795;SDS011;57073;45.650;9.612;2022-08-30T05:50:03;12.63;;;7.47;;
69795;SDS011;57073;45.650;9.612;2022-08-30T05:52:05;9.82;;;7.30;;
69795;SDS011;57073;45.650;9.612;2022-08-30T05:54:06;11.93;;;7.23;;
69795;SDS011;57073;45.650;9.612;2022-08-30T05:56:07;8.00;;;7.07;;
69795;SDS011;57073;45.650;9.612;2022-08-30T05:58:08;12.18;;;7.78;;
69795;SDS011;57073;45.650;9.612;2022-08-30T06:00:10;10.43;;;7.57;;
69795;SDS011;57073;45.650;9.612;2022-08-30T06:02:10;9.13;;;6.30;;
69795;SDS011;57073;45.650;9.612;2022-08-30T06:04:11;9.80;;;6.97;;
69795;SDS011;57073;45.650;9.612;2022-08-30T06:06:11;9.68;;;7.32;;
69795;SDS011;57073;45.650;9.612;2022-08-30T06:08:12;9.80;;;7.40;;
69795;SDS011;57073;45.650;9.612;2022-08-30T06:10:12;10.10;;;7.40;;
69795;SDS011;57073;45.650;9.612;2022-08-30T06:12:12;11.63;;;7.53;;
69795;SDS011;57073;45.650;9.612;2022-08-30T06:14:13;11.73;;;7.60;;
69795;SDS011;57073;45.650;9.612;2022-08-30T06:16:14;11.47;;;7.33;;
69795;SDS011;57073;45.650;9.612;2022-08-30T06:18:14;11.98;;;7.38;;
69795;SDS011;57073;45.650;9.612;2022-08-30T06:20:15;8.77;;;6.80;;
69795;SDS011;57073;45.650;9.612;2022-08-30T06:22:17;7.60;;;6.30;;
69795;SDS011;57073;45.650;9.612;2022-08-30T06:24:18;8.87;;;7.13;;
69795;SDS011;57073;45.650;9.612;2022-08-30T06:26:18;9.67;;;6.63;;
69795;SDS011;57073;45.650;9.612;2022-08-30T06:28:18;8.68;;;6.82;;
69795;SDS011;57073;45.650;9.612;2022-08-30T06:30:19;9.37;;;7.27;;
69795;SDS011;57073;45.650;9.612;2022-08-30T06:32:19;7.73;;;6.63;;
69795;SDS011;57073;45.650;9.612;2022-08-30T06:34:19;11.13;;;6.90;;
69795;SDS011;57073;45.650;9.612;2022-08-30T06:36:22;9.80;;;6.43;;
69795;SDS011;57073;45.650;9.612;2022-08-30T06:38:22;8.40;;;6.63;;
69795;SDS011;57073;45.650;9.612;2022-08-30T06:40:22;8.47;;;6.50;;
69795;SDS011;57073;45.650;9.612;2022-08-30T06:42:23;10.17;;;7.07;;
69795;SDS011;57073;45.650;9.612;2022-08-30T06:44:29;7.93;;;6.55;;
69795;SDS011;57073;45.650;9.612;2022-08-30T06:46:31;10.30;;;7.03;;
69795;SDS011;57073;45.650;9.612;2022-08-30T06:48:31;12.48;;;7.07;;
69795;SDS011;57073;45.650;9.612;2022-08-30T06:50:32;8.13;;;6.63;;
69795;SDS011;57073;45.650;9.612;2022-08-30T06:52:32;9.20;;;6.57;;
69795;SDS011;57073;45.650;9.612;2022-08-30T06:54:32;9.63;;;6.33;;
69795;SDS011;57073;45.650;9.612;2022-08-30T06:56:32;8.33;;;6.43;;
69795;SDS011;57073;45.650;9.612;2022-08-30T06:58:33;8.33;;;6.50;;
69795;SDS011;57073;45.650;9.612;2022-08-30T07:00:34;9.43;;;6.40;;
69795;SDS011;57073;45.650;9.612;2022-08-30T07:02:37;6.77;;;5.93;;
69795;SDS011;57073;45.650;9.612;2022-08-30T07:04:37;8.77;;;6.07;;
69795;SDS011;57073;45.650;9.612;2022-08-30T07:06:37;7.40;;;6.00;;
69795;SDS011;57073;45.650;9.612;2022-08-30T07:08:38;7.53;;;6.37;;
69795;SDS011;57073;45.650;9.612;2022-08-30T07:10:39;8.30;;;6.30;;
69795;SDS011;57073;45.650;9.612;2022-08-30T07:12:39;7.63;;;6.75;;
69795;SDS011;57073;45.650;9.612;2022-08-30T07:14:40;10.83;;;6.67;;
69795;SDS011;57073;45.650;9.612;2022-08-30T07:16:40;8.13;;;6.43;;
69795;SDS011;57073;45.650;9.612;2022-08-30T07:18:40;8.17;;;6.87;;
69795;SDS011;57073;45.650;9.612;2022-08-30T07:20:50;7.38;;;6.57;;
69795;SDS011;57073;45.650;9.612;2022-08-30T07:22:50;9.30;;;6.30;;
69795;SDS011;57073;45.650;9.612;2022-08-30T07:24:50;9.47;;;6.77;;
69795;SDS011;57073;45.650;9.612;2022-08-30T07:26:50;9.13;;;6.77;;
69795;SDS011;57073;45.650;9.612;2022-08-30T07:28:51;6.90;;;6.07;;
69795;SDS011;57073;45.650;9.612;2022-08-30T07:30:51;8.80;;;6.00;;
69795;SDS011;57073;45.650;9.612;2022-08-30T07:32:52;7.57;;;5.63;;
69795;SDS011;57073;45.650;9.612;2022-08-30T07:34:52;7.53;;;6.00;;
69795;SDS011;57073;45.650;9.612;2022-08-30T07:36:52;8.83;;;6.73;;
69795;SDS011;57073;45.650;9.612;2022-08-30T07:38:53;8.63;;;7.10;;
69795;SDS011;57073;45.650;9.612;2022-08-30T07:40:53;8.60;;;6.93;;
69795;SDS011;57073;45.650;9.612;2022-08-30T07:42:53;8.27;;;6.90;;
69795;SDS011;57073;45.650;9.612;2022-08-30T07:44:54;9.80;;;7.60;;
69795;SDS011;57073;45.650;9.612;2022-08-30T07:46:54;9.37;;;7.20;;
69795;SDS011;57073;45.650;9.612;2022-08-30T07:48:55;11.20;;;8.20;;
69795;SDS011;57073;45.650;9.612;2022-08-30T07:50:55;11.43;;;7.30;;
69795;SDS011;57073;45.650;9.612;2022-08-30T07:52:56;8.30;;;7.37;;
69795;SDS011;57073;45.650;9.612;2022-08-30T07:54:56;8.73;;;6.90;;
69795;SDS011;57073;45.650;9.612;2022-08-30T07:56:57;8.05;;;7.00;;
69795;SDS011;57073;45.650;9.612;2022-08-30T07:58:57;8.73;;;6.23;;
69795;SDS011;57073;45.650;9.612;2022-08-30T08:00:58;8.20;;;6.90;;
69795;SDS011;57073;45.650;9.612;2022-08-30T08:03:03;9.38;;;6.60;;
69795;SDS011;57073;45.650;9.612;2022-08-30T08:05:03;10.25;;;7.25;;
69795;SDS011;57073;45.650;9.612;2022-08-30T08:07:04;11.43;;;7.00;;
69795;SDS011;57073;45.650;9.612;2022-08-30T08:09:04;11.60;;;6.85;;
69795;SDS011;57073;45.650;9.612;2022-08-30T08:11:15;9.40;;;6.70;;
69795;SDS011;57073;45.650;9.612;2022-08-30T08:13:15;10.40;;;6.32;;
69795;SDS011;57073;45.650;9.612;2022-08-30T08:15:16;11.07;;;7.47;;
69795;SDS011;57073;45.650;9.612;2022-08-30T08:17:16;8.20;;;6.90;;
69795;SDS011;57073;45.650;9.612;2022-08-30T08:19:16;7.60;;;6.30;;
69795;SDS011;57073;45.650;9.612;2022-08-30T08:21:18;7.40;;;6.57;;
69795;SDS011;57073;45.650;9.612;2022-08-30T08:23:19;11.50;;;9.25;;
69795;SDS011;57073;45.650;9.612;2022-08-30T08:25:20;13.60;;;9.55;;
69795;SDS011;57073;45.650;9.612;2022-08-30T08:27:22;10.13;;;8.50;;
69795;SDS011;57073;45.650;9.612;2022-08-30T08:29:23;12.57;;;8.77;;
69795;SDS011;57073;45.650;9.612;2022-08-30T08:31:25;10.88;;;8.73;;
69795;SDS011;57073;45.650;9.612;2022-08-30T08:33:26;13.02;;;9.77;;
69795;SDS011;57073;45.650;9.612;2022-08-30T08:35:26;13.97;;;9.90;;
69795;SDS011;57073;45.650;9.612;2022-08-30T08:37:26;14.73;;;9.77;;
69795;SDS011;57073;45.650;9.612;2022-08-30T08:39:27;11.67;;;8.80;;
69795;SDS011;57073;45.650;9.612;2022-08-30T08:43:34;14.25;;;10.10;;
69795;SDS011;57073;45.650;9.612;2022-08-30T08:49:46;10.70;;;8.50;;
69795;SDS011;57073;45.650;9.612;2022-08-30T08:51:48;10.48;;;9.00;;
69795;SDS011;57073;45.650;9.612;2022-08-30T08:54:15;11.17;;;8.90;;
69795;SDS011;57073;45.650;9.612;2022-08-30T08:56:18;10.70;;;9.23;;
69795;SDS011;57073;45.650;9.612;2022-08-30T08:58:25;12.73;;;9.23;;
69795;SDS011;57073;45.650;9.612;2022-08-30T09:00:26;10.80;;;7.85;;
69795;SDS011;57073;45.650;9.612;2022-08-30T09:02:32;11.20;;;8.23;;
69795;SDS011;57073;45.650;9.612;2022-08-30T09:04:33;11.93;;;8.25;;
69795;SDS011;57073;45.650;9.612;2022-08-30T09:08:35;11.07;;;7.10;;
69795;SDS011;57073;45.650;9.612;2022-08-30T09:10:36;10.60;;;8.90;;
69795;SDS011;57073;45.650;9.612;2022-08-30T09:12:37;10.27;;;8.05;;
69795;SDS011;57073;45.650;9.612;2022-08-30T09:14:48;9.30;;;8.30;;
69795;SDS011;57073;45.650;9.612;2022-08-30T09:17:01;11.35;;;9.23;;
69795;SDS011;57073;45.650;9.612;2022-08-30T09:19:01;11.23;;;9.98;;
69795;SDS011;57073;45.650;9.612;2022-08-30T09:21:04;12.23;;;9.47;;
69795;SDS011;57073;45.650;9.612;2022-08-30T09:25:32;15.18;;;9.77;;
69795;SDS011;57073;45.650;9.612;2022-08-30T09:29:32;13.80;;;10.50;;
69795;SDS011;57073;45.650;9.612;2022-08-30T09:31:44;16.87;;;10.67;;
69795;SDS011;57073;45.650;9.612;2022-08-30T09:34:04;14.95;;;10.88;;
69795;SDS011;57073;45.650;9.612;2022-08-30T09:36:09;13.13;;;10.30;;
69795;SDS011;57073;45.650;9.612;2022-08-30T09:38:16;11.73;;;9.63;;
69795;SDS011;57073;45.650;9.612;2022-08-30T09:40:21;13.23;;;10.07;;
69795;SDS011;57073;45.650;9.612;2022-08-30T09:42:24;14.23;;;11.30;;
69795;SDS011;57073;45.650;9.612;2022-08-30T09:44:26;14.48;;;10.82;;
69795;SDS011;57073;45.650;9.612;2022-08-30T09:46:30;14.60;;;10.45;;
69795;SDS011;57073;45.650;9.612;2022-08-30T09:48:32;13.57;;;10.07;;
69795;SDS011;57073;45.650;9.612;2022-08-30T09:50:33;11.70;;;9.70;;
69795;SDS011;57073;45.650;9.612;2022-08-30T09:54:37;12.23;;;9.43;;
69795;SDS011;57073;45.650;9.612;2022-08-30T10:01:27;15.00;;;10.80;;
69795;SDS011;57073;45.650;9.612;2022-08-30T10:03:22;10.80;;;9.30;;
69795;SDS011;57073;45.650;9.612;2022-08-30T10:05:41;11.20;;;8.50;;
69795;SDS011;57073;45.650;9.612;2022-08-30T10:07:48;13.40;;;7.45;;
69795;SDS011;57073;45.650;9.612;2022-08-30T10:12:22;10.88;;;8.95;;
69795;SDS011;57073;45.650;9.612;2022-08-30T10:14:28;12.18;;;8.55;;
69795;SDS011;57073;45.650;9.612;2022-08-30T10:20:52;11.90;;;7.80;;
69795;SDS011;57073;45.650;9.612;2022-08-30T10:25:00;14.43;;;9.68;;
69795;SDS011;57073;45.650;9.612;2022-08-30T10:27:03;11.80;;;8.33;;
69795;SDS011;57073;45.650;9.612;2022-08-30T10:29:05;19.23;;;9.25;;
69795;SDS011;57073;45.650;9.612;2022-08-30T10:31:23;10.40;;;8.10;;
69795;SDS011;57073;45.650;9.612;2022-08-30T10:33:25;13.32;;;10.10;;
69795;SDS011;57073;45.650;9.612;2022-08-30T10:35:29;15.52;;;9.05;;
69795;SDS011;57073;45.650;9.612;2022-08-30T10:37:33;15.03;;;8.00;;
69795;SDS011;57073;45.650;9.612;2022-08-30T10:39:39;14.25;;;9.32;;
69795;SDS011;57073;45.650;9.612;2022-08-30T10:41:42;13.38;;;8.30;;
69795;SDS011;57073;45.650;9.612;2022-08-30T10:43:53;14.50;;;9.13;;
69795;SDS011;57073;45.650;9.612;2022-08-30T10:45:55;10.98;;;8.00;;
69795;SDS011;57073;45.650;9.612;2022-08-30T10:50:15;10.97;;;9.13;;
69795;SDS011;57073;45.650;9.612;2022-08-30T10:52:52;12.82;;;9.55;;
69795;SDS011;57073;45.650;9.612;2022-08-30T10:56:43;12.27;;;7.93;;
69795;SDS011;57073;45.650;9.612;2022-08-30T10:58:44;10.23;;;7.70;;
69795;SDS011;57073;45.650;9.612;2022-08-30T11:10:08;11.02;;;7.95;;
69795;SDS011;57073;45.650;9.612;2022-08-30T11:14:31;12.80;;;8.80;;
69795;SDS011;57073;45.650;9.612;2022-08-30T11:16:39;12.07;;;8.83;;
69795;SDS011;57073;45.650;9.612;2022-08-30T11:18:42;11.90;;;9.20;;
69795;SDS011;57073;45.650;9.612;2022-08-30T11:20:50;14.77;;;8.33;;
69795;SDS011;57073;45.650;9.612;2022-08-30T11:23:18;11.68;;;8.80;;
69795;SDS011;57073;45.650;9.612;2022-08-30T11:26:05;11.90;;;8.85;;
69795;SDS011;57073;45.650;9.612;2022-08-30T11:29:43;13.47;;;8.57;;
69795;SDS011;57073;45.650;9.612;2022-08-30T11:31:44;11.77;;;8.23;;
69795;SDS011;57073;45.650;9.612;2022-08-30T11:33:48;11.57;;;8.70;;
69795;SDS011;57073;45.650;9.612;2022-08-30T11:35:50;13.77;;;9.13;;
69795;SDS011;57073;45.650;9.612;2022-08-30T11:37:51;11.70;;;8.73;;
69795;SDS011;57073;45.650;9.612;2022-08-30T11:39:52;9.45;;;8.10;;
69795;SDS011;57073;45.650;9.612;2022-08-30T11:44:32;11.02;;;8.25;;
69795;SDS011;57073;45.650;9.612;2022-08-30T11:48:43;10.83;;;8.70;;
69795;SDS011;57073;45.650;9.612;2022-08-30T11:52:49;13.93;;;9.25;;
69795;SDS011;57073;45.650;9.612;2022-08-30T12:01:19;11.60;;;8.65;;
69795;SDS011;57073;45.650;9.612;2022-08-30T12:03:27;11.23;;;8.60;;
69795;SDS011;57073;45.650;9.612;2022-08-30T12:07:55;12.48;;;8.20;;
69795;SDS011;57073;45.650;9.612;2022-08-30T12:09:57;10.48;;;8.05;;
69795;SDS011;57073;45.650;9.612;2022-08-30T12:12:05;13.18;;;9.63;;
69795;SDS011;57073;45.650;9.612;2022-08-30T12:14:06;12.32;;;9.13;;
69795;SDS011;57073;45.650;9.612;2022-08-30T12:18:16;12.30;;;9.60;;
69795;SDS011;57073;45.650;9.612;2022-08-30T12:20:50;14.50;;;9.38;;
69795;SDS011;57073;45.650;9.612;2022-08-30T12:22:51;16.23;;;10.33;;
69795;SDS011;57073;45.650;9.612;2022-08-30T12:24:51;14.50;;;11.10;;
69795;SDS011;57073;45.650;9.612;2022-08-30T12:26:52;13.38;;;9.30;;
69795;SDS011;57073;45.650;9.612;2022-08-30T12:31:16;12.45;;;8.40;;
69795;SDS011;57073;45.650;9.612;2022-08-30T12:33:28;11.90;;;9.05;;
69795;SDS011;57073;45.650;9.612;2022-08-30T12:35:31;12.68;;;9.27;;
69795;SDS011;57073;45.650;9.612;2022-08-30T12:37:34;11.50;;;9.63;;
69795;SDS011;57073;45.650;9.612;2022-08-30T12:39:36;15.00;;;9.90;;
69795;SDS011;57073;45.650;9.612;2022-08-30T12:41:37;14.35;;;9.50;;
69795;SDS011;57073;45.650;9.612;2022-08-30T12:43:38;12.00;;;8.87;;
69795;SDS011;57073;45.650;9.612;2022-08-30T12:45:43;16.25;;;11.10;;
69795;SDS011;57073;45.650;9.612;2022-08-30T12:49:48;15.63;;;11.48;;
69795;SDS011;57073;45.650;9.612;2022-08-30T12:51:49;15.70;;;11.03;;
69795;SDS011;57073;45.650;9.612;2022-08-30T12:53:49;13.17;;;11.10;;
69795;SDS011;57073;45.650;9.612;2022-08-30T12:56:09;13.38;;;9.52;;
69795;SDS011;57073;45.650;9.612;2022-08-30T12:58:09;12.63;;;10.70;;
69795;SDS011;57073;45.650;9.612;2022-08-30T13:00:23;13.85;;;10.50;;
69795;SDS011;57073;45.650;9.612;2022-08-30T13:02:25;13.43;;;10.50;;
69795;SDS011;57073;45.650;9.612;2022-08-30T13:04:26;15.50;;;11.23;;
69795;SDS011;57073;45.650;9.612;2022-08-30T13:08:46;13.65;;;11.57;;
69795;SDS011;57073;45.650;9.612;2022-08-30T13:10:49;11.57;;;9.77;;
69795;SDS011;57073;45.650;9.612;2022-08-30T13:12:57;12.98;;;9.43;;
69795;SDS011;57073;45.650;9.612;2022-08-30T13:15:11;14.83;;;9.73;;
69795;SDS011;57073;45.650;9.612;2022-08-30T13:17:21;14.00;;;11.32;;
69795;SDS011;57073;45.650;9.612;2022-08-30T13:19:35;15.40;;;11.85;;
69795;SDS011;57073;45.650;9.612;2022-08-30T13:21:36;15.95;;;11.93;;